createdAt,value
2022-09-15T00:01:17.977Z,19.79
2022-09-15T00:03:46.912Z,19.79
2022-09-15T00:06:14.880Z,19.76
2022-09-15T00:08:43.178Z,19.73
2022-09-15T00:11:16.223Z,19.68
2022-09-15T00:13:44.958Z,19.66
2022-09-15T00:16:15.741Z,19.61
2022-09-15T00:18:44.991Z,19.56
2022-09-15T00:21:15.548Z,19.51
2022-09-15T00:23:43.986Z,19.52
2022-09-15T00:26:14.519Z,19.51
2022-09-15T00:28:43.153Z,19.50
2022-09-15T00:31:13.764Z,19.51
2022-09-15T00:33:43.432Z,19.50
2022-09-15T00:36:14.052Z,19.49
2022-09-15T00:38:42.501Z,19.51
2022-09-15T00:41:13.168Z,19.55
2022-09-15T00:43:47.799Z,19.55
2022-09-15T00:46:17.440Z,19.60
2022-09-15T00:48:52.243Z,19.60
2022-09-15T00:51:29.561Z,19.62
2022-09-15T00:53:59.322Z,19.64
2022-09-15T00:56:28.511Z,19.66
2022-09-15T00:59:01.328Z,19.66
2022-09-15T01:01:32.178Z,19.68
2022-09-15T01:04:01.997Z,19.68
2022-09-15T01:06:37.271Z,19.68
2022-09-15T01:09:10.305Z,19.69
2022-09-15T01:11:39.690Z,19.70
2022-09-15T01:14:07.975Z,19.69
2022-09-15T01:16:49.053Z,19.68
2022-09-15T01:19:40.865Z,19.67
2022-09-15T01:22:21.633Z,19.66
2022-09-15T01:25:03.933Z,19.61
2022-09-15T01:27:58.842Z,19.59
2022-09-15T01:30:34.323Z,19.60
2022-09-15T01:33:21.618Z,19.58
2022-09-15T01:35:55.407Z,19.62
2022-09-15T01:38:31.604Z,19.59
2022-09-15T01:41:05.218Z,19.59
2022-09-15T01:43:36.601Z,19.60
2022-09-15T01:46:08.386Z,19.58
2022-09-15T01:48:37.947Z,19.58
2022-09-15T01:51:07.618Z,19.54
2022-09-15T01:53:36.596Z,19.55
2022-09-15T01:56:07.780Z,19.53
2022-09-15T01:58:38.069Z,19.52
2022-09-15T02:01:13.828Z,19.52
2022-09-15T02:03:47.237Z,19.51
2022-09-15T02:06:22.904Z,19.51
2022-09-15T02:08:57.404Z,19.50
2022-09-15T02:11:28.194Z,19.50
2022-09-15T02:14:11.577Z,19.50
2022-09-15T02:16:46.205Z,19.51
2022-09-15T02:19:21.438Z,19.50
2022-09-15T02:21:58.094Z,19.49
2022-09-15T02:24:32.525Z,19.49
2022-09-15T02:27:03.861Z,19.46
2022-09-15T02:29:37.369Z,19.48
2022-09-15T02:32:09.470Z,19.44
2022-09-15T02:34:42.956Z,19.40
2022-09-15T02:37:12.215Z,19.35
2022-09-15T02:39:44.731Z,19.31
2022-09-15T02:42:13.143Z,19.23
2022-09-15T02:44:42.210Z,19.16
2022-09-15T02:47:12.324Z,19.13
2022-09-15T02:49:40.216Z,19.06
2022-09-15T02:52:08.375Z,19.02
2022-09-15T02:54:36.257Z,18.97
2022-09-15T02:57:04.127Z,18.92
2022-09-15T02:59:52.568Z,18.88
2022-09-15T03:02:22.084Z,18.82
2022-09-15T03:04:51.201Z,18.78
2022-09-15T03:07:20.177Z,18.74
2022-09-15T03:09:48.060Z,18.64
2022-09-15T03:12:16.244Z,18.64
2022-09-15T03:14:44.318Z,18.60
2022-09-15T03:17:12.287Z,18.57
2022-09-15T03:19:42.107Z,18.52
2022-09-15T03:22:10.494Z,18.46
2022-09-15T03:24:38.962Z,18.43
2022-09-15T03:27:07.184Z,18.37
2022-09-15T03:29:35.055Z,18.32
2022-09-15T03:32:03.763Z,18.27
2022-09-15T03:34:31.933Z,18.22
2022-09-15T03:37:01.326Z,18.14
2022-09-15T03:39:29.276Z,18.07
2022-09-15T03:41:57.562Z,18.02
2022-09-15T03:44:25.641Z,17.94
2022-09-15T03:46:53.635Z,17.90
2022-09-15T03:49:22.021Z,17.85
2022-09-15T03:51:50.056Z,17.81
2022-09-15T03:54:19.878Z,17.78
2022-09-15T03:56:49.147Z,17.74
2022-09-15T03:59:20.787Z,17.75
2022-09-15T04:01:50.445Z,17.73
2022-09-15T04:04:18.687Z,17.75
2022-09-15T04:06:47.148Z,17.72
2022-09-15T04:09:15.218Z,17.72
2022-09-15T04:11:44.724Z,17.71
2022-09-15T04:14:12.643Z,17.72
2022-09-15T04:16:40.627Z,17.70
2022-09-15T04:19:08.967Z,17.70
2022-09-15T04:21:36.875Z,17.71
2022-09-15T04:24:05.965Z,17.71
2022-09-15T04:26:36.383Z,17.71
2022-09-15T04:29:12.360Z,17.69
2022-09-15T04:31:40.527Z,17.70
2022-09-15T04:34:08.820Z,17.72
2022-09-15T04:36:36.824Z,17.77
2022-09-15T04:39:06.475Z,17.79
2022-09-15T04:41:34.492Z,17.85
2022-09-15T04:44:03.389Z,17.90
2022-09-15T04:46:33.070Z,17.96
2022-09-15T04:49:01.105Z,17.97
2022-09-15T04:51:28.987Z,18.02
2022-09-15T04:53:57.204Z,18.05
2022-09-15T04:56:26.742Z,18.06
2022-09-15T04:59:02.465Z,18.09
2022-09-15T05:01:35.134Z,18.11
2022-09-15T05:04:04.815Z,18.14
2022-09-15T05:06:33.444Z,18.20
2022-09-15T05:09:04.444Z,18.23
2022-09-15T05:11:35.939Z,18.28
2022-09-15T05:14:04.191Z,18.32
2022-09-15T05:16:33.419Z,18.35
2022-09-15T05:19:04.638Z,18.38
2022-09-15T05:21:32.889Z,18.43
2022-09-15T05:24:00.790Z,18.48
2022-09-15T05:26:29.989Z,18.53
2022-09-15T05:28:58.442Z,18.59
2022-09-15T05:31:28.110Z,18.63
2022-09-15T05:33:57.662Z,18.67
2022-09-15T05:36:26.354Z,18.72
2022-09-15T05:38:56.538Z,18.76
2022-09-15T05:41:25.827Z,18.81
2022-09-15T05:43:55.231Z,18.83
2022-09-15T05:46:25.918Z,18.86
2022-09-15T05:48:55.167Z,18.94
2022-09-15T05:51:24.848Z,19.00
2022-09-15T05:53:52.917Z,19.05
2022-09-15T05:56:21.346Z,19.13
2022-09-15T05:58:50.035Z,19.18
2022-09-15T06:01:19.818Z,19.24
2022-09-15T06:03:49.375Z,19.31
2022-09-15T06:06:17.957Z,19.36
2022-09-15T06:08:53.055Z,19.34
2022-09-15T06:11:27.610Z,19.40
2022-09-15T06:13:55.684Z,19.48
2022-09-15T06:16:25.109Z,19.55
2022-09-15T06:18:54.825Z,19.57
2022-09-15T06:21:25.074Z,19.63
2022-09-15T06:23:55.981Z,19.66
2022-09-15T06:26:24.743Z,19.74
2022-09-15T06:28:54.892Z,19.81
2022-09-15T06:31:24.675Z,19.89
2022-09-15T06:33:55.869Z,19.97
2022-09-15T06:36:26.402Z,20.04
2022-09-15T06:38:56.317Z,20.06
2022-09-15T06:41:24.685Z,20.02
2022-09-15T06:43:53.101Z,20.10
2022-09-15T06:46:23.483Z,20.14
2022-09-15T06:48:53.433Z,20.07
2022-09-15T06:51:23.724Z,20.22
2022-09-15T06:53:52.450Z,20.27
2022-09-15T06:56:23.773Z,20.38
2022-09-15T06:58:52.672Z,20.50
2022-09-15T07:01:23.000Z,20.58
2022-09-15T07:03:51.276Z,20.64
2022-09-15T07:06:19.810Z,20.77
2022-09-15T07:08:48.811Z,20.99
2022-09-15T07:11:18.641Z,21.22
2022-09-15T07:13:48.520Z,21.42
2022-09-15T07:16:18.811Z,21.55
2022-09-15T07:18:47.126Z,21.62
2022-09-15T07:21:17.426Z,21.68
2022-09-15T07:23:45.763Z,21.79
2022-09-15T07:26:16.352Z,21.89
2022-09-15T07:28:46.159Z,21.92
2022-09-15T07:31:17.811Z,22.01
2022-09-15T07:33:46.420Z,22.15
2022-09-15T07:36:15.002Z,22.34
2022-09-15T07:38:45.467Z,22.47
2022-09-15T07:41:15.378Z,22.60
2022-09-15T07:43:47.060Z,22.61
2022-09-15T07:46:16.548Z,22.52
2022-09-15T07:48:46.158Z,22.57
2022-09-15T07:51:14.168Z,22.60
2022-09-15T07:53:42.493Z,22.62
2022-09-15T07:56:10.612Z,22.53
2022-09-15T07:58:38.675Z,22.51
2022-09-15T08:01:11.055Z,22.58
2022-09-15T08:03:42.721Z,22.74
2022-09-15T08:06:11.564Z,22.66
2022-09-15T08:08:41.290Z,22.80
2022-09-15T08:11:13.063Z,22.84
2022-09-15T08:13:43.601Z,22.92
2022-09-15T08:16:13.563Z,22.92
2022-09-15T08:18:44.239Z,22.89
2022-09-15T08:21:15.206Z,22.97
2022-09-15T08:23:43.228Z,22.89
2022-09-15T08:26:14.362Z,22.89
2022-09-15T08:28:43.210Z,23.03
2022-09-15T08:31:13.660Z,23.10
2022-09-15T08:33:45.843Z,23.31
2022-09-15T08:36:14.588Z,23.35
2022-09-15T08:38:44.496Z,23.49
2022-09-15T08:41:16.273Z,23.67
2022-09-15T08:43:48.878Z,23.73
2022-09-15T08:46:22.925Z,23.84
2022-09-15T08:49:02.996Z,23.98
2022-09-15T08:51:39.607Z,24.19
2022-09-15T08:54:15.312Z,24.35
2022-09-15T08:56:44.386Z,24.63
2022-09-15T08:59:15.797Z,24.80
2022-09-15T09:01:54.227Z,25.03
2022-09-15T09:04:36.631Z,25.22
2022-09-15T09:07:16.856Z,24.98
2022-09-15T09:09:53.534Z,25.25
2022-09-15T09:12:43.091Z,25.16
2022-09-15T09:15:26.809Z,25.19
2022-09-15T09:18:46.919Z,25.00
2022-09-15T09:21:23.288Z,24.62
2022-09-15T09:23:58.662Z,24.24
2022-09-15T09:26:28.144Z,24.10
2022-09-15T09:28:59.692Z,23.92
2022-09-15T09:31:29.891Z,23.77
2022-09-15T09:34:15.786Z,23.68
2022-09-15T09:36:45.279Z,23.77
2022-09-15T09:39:15.487Z,23.93
2022-09-15T09:41:43.821Z,24.21
2022-09-15T09:44:15.957Z,24.71
2022-09-15T09:46:44.303Z,24.82
2022-09-15T09:49:17.924Z,25.07
2022-09-15T09:51:55.187Z,25.06
2022-09-15T09:54:27.243Z,24.98
2022-09-15T09:56:57.739Z,24.92
2022-09-15T09:59:34.851Z,24.67
2022-09-15T10:02:17.432Z,24.22
2022-09-15T10:04:47.347Z,24.15
2022-09-15T10:07:18.626Z,24.15
2022-09-15T10:09:53.495Z,24.14
2022-09-15T10:12:25.972Z,23.84
2022-09-15T10:14:57.359Z,23.92
2022-09-15T10:17:28.035Z,23.85
2022-09-15T10:19:58.935Z,23.90
2022-09-15T10:22:31.214Z,23.95
2022-09-15T10:25:00.467Z,23.76
2022-09-15T10:27:31.068Z,23.87
2022-09-15T10:30:18.362Z,23.83
2022-09-15T10:32:46.484Z,23.83
2022-09-15T10:35:16.752Z,23.84
2022-09-15T10:38:04.759Z,23.75
2022-09-15T10:40:39.120Z,23.63
2022-09-15T10:43:21.145Z,23.74
2022-09-15T10:45:50.389Z,24.01
2022-09-15T10:48:38.354Z,24.11
2022-09-15T10:51:21.982Z,24.13
2022-09-15T10:54:07.551Z,23.95
2022-09-15T10:56:41.697Z,23.92
2022-09-15T10:59:34.599Z,23.94
2022-09-15T11:02:36.290Z,23.93
2022-09-15T11:05:22.600Z,23.80
2022-09-15T11:08:04.984Z,23.42
2022-09-15T11:10:43.251Z,23.36
2022-09-15T11:13:23.522Z,23.57
2022-09-15T11:16:05.566Z,23.72
2022-09-15T11:18:50.808Z,23.92
2022-09-15T11:21:24.205Z,23.90
2022-09-15T11:24:01.868Z,24.05
2022-09-15T11:26:36.194Z,24.12
2022-09-15T11:29:08.567Z,24.31
2022-09-15T11:31:41.163Z,24.41
2022-09-15T11:34:20.851Z,24.29
2022-09-15T11:36:54.112Z,24.29
2022-09-15T11:39:25.804Z,24.59
2022-09-15T11:42:01.020Z,24.85
2022-09-15T11:44:31.715Z,24.94
2022-09-15T11:47:08.422Z,24.94
2022-09-15T11:49:41.542Z,25.13
2022-09-15T11:52:22.628Z,25.17
2022-09-15T11:54:58.646Z,25.58
2022-09-15T11:57:35.727Z,25.55
2022-09-15T12:00:11.006Z,25.55
2022-09-15T12:02:47.876Z,25.50
2022-09-15T12:05:20.709Z,25.44
2022-09-15T12:07:54.059Z,25.59
2022-09-15T12:10:26.698Z,25.75
2022-09-15T12:12:57.386Z,25.87
2022-09-15T12:15:27.994Z,25.82
2022-09-15T12:18:21.382Z,26.07
2022-09-15T12:21:03.889Z,26.26
2022-09-15T12:23:39.086Z,26.17
2022-09-15T12:26:17.429Z,26.03
2022-09-15T12:28:58.357Z,26.05
2022-09-15T12:31:30.764Z,26.10
2022-09-15T12:34:00.722Z,25.75
2022-09-15T12:36:35.200Z,25.45
2022-09-15T12:39:06.326Z,25.15
2022-09-15T12:41:34.279Z,25.18
2022-09-15T12:44:15.651Z,25.18
2022-09-15T12:46:52.011Z,24.85
2022-09-15T12:49:27.558Z,24.74
2022-09-15T12:51:56.222Z,24.53
2022-09-15T12:54:28.159Z,24.35
2022-09-15T12:56:58.393Z,24.39
2022-09-15T12:59:29.243Z,24.16
2022-09-15T13:01:58.375Z,24.00
2022-09-15T13:04:50.012Z,23.87
2022-09-15T13:07:53.002Z,23.96
2022-09-15T13:10:39.370Z,23.95
2022-09-15T13:13:23.542Z,24.13
2022-09-15T13:15:56.425Z,24.24
2022-09-15T13:18:25.658Z,24.19
2022-09-15T13:21:00.971Z,24.17
2022-09-15T13:23:34.882Z,24.31
2022-09-15T13:26:04.528Z,24.57
2022-09-15T13:28:32.802Z,24.69
2022-09-15T13:31:12.509Z,24.93
2022-09-15T13:40:15.490Z,25.17
2022-09-15T13:42:57.218Z,25.19
2022-09-15T13:45:38.478Z,25.08
2022-09-15T13:48:21.389Z,25.27
2022-09-15T13:50:57.872Z,25.31
2022-09-15T13:53:42.478Z,25.22
2022-09-15T13:56:20.755Z,25.20
2022-09-15T13:59:01.293Z,25.13
2022-09-15T14:01:35.951Z,25.05
2022-09-15T14:04:07.974Z,24.93
2022-09-15T14:06:39.222Z,24.97
2022-09-15T14:09:10.595Z,24.94
2022-09-15T14:11:39.439Z,24.77
2022-09-15T14:14:12.157Z,24.77
2022-09-15T14:16:40.951Z,24.91
2022-09-15T14:19:33.248Z,25.07
2022-09-15T14:22:02.290Z,24.95
2022-09-15T14:24:31.920Z,25.12
2022-09-15T14:27:03.416Z,25.30
2022-09-15T14:29:31.698Z,25.37
2022-09-15T14:32:03.964Z,25.33
2022-09-15T14:34:37.412Z,25.23
2022-09-15T14:37:08.864Z,25.22
2022-09-15T14:39:40.223Z,25.12
2022-09-15T14:42:21.467Z,25.09
2022-09-15T14:47:41.739Z,25.06
2022-09-15T14:50:15.182Z,24.94
2022-09-15T14:52:45.667Z,24.78
2022-09-15T14:55:18.879Z,24.91
2022-09-15T14:57:54.183Z,24.74
2022-09-15T15:00:27.509Z,24.79
2022-09-15T15:03:14.853Z,24.83
2022-09-15T15:05:58.088Z,25.13
2022-09-15T15:08:36.797Z,25.36
2022-09-15T15:11:08.098Z,25.39
2022-09-15T15:13:39.806Z,25.04
2022-09-15T15:16:12.422Z,25.17
2022-09-15T15:18:42.508Z,24.97
2022-09-15T15:34:27.132Z,25.35
2022-09-15T15:37:03.218Z,25.35
2022-09-15T15:39:31.441Z,24.70
2022-09-15T15:42:02.891Z,24.52
2022-09-15T15:44:32.153Z,24.14
2022-09-15T15:47:02.443Z,24.27
2022-09-15T15:49:33.498Z,24.26
2022-09-15T15:52:02.532Z,24.22
2022-09-15T15:54:30.519Z,23.90
2022-09-15T15:57:21.038Z,23.96
2022-09-15T15:59:49.140Z,23.84
2022-09-15T16:02:17.241Z,23.77
2022-09-15T16:04:46.697Z,23.84
2022-09-15T16:07:18.207Z,23.95
2022-09-15T16:09:46.901Z,23.84
2022-09-15T16:12:15.305Z,23.81
2022-09-15T16:14:43.761Z,23.65
2022-09-15T16:17:11.921Z,23.68
2022-09-15T16:19:40.258Z,23.64
2022-09-15T16:22:12.297Z,23.48
2022-09-15T16:24:40.347Z,23.50
2022-09-15T16:27:15.916Z,23.45
2022-09-15T16:29:44.921Z,23.38
2022-09-15T16:32:18.951Z,23.34
2022-09-15T16:34:47.870Z,23.31
2022-09-15T16:37:17.135Z,23.14
2022-09-15T16:39:45.219Z,23.16
2022-09-15T16:42:13.463Z,23.04
2022-09-15T16:44:41.299Z,23.11
2022-09-15T16:47:09.335Z,23.10
2022-09-15T16:49:39.359Z,23.06
2022-09-15T16:52:07.332Z,22.93
2022-09-15T16:54:36.511Z,22.93
2022-09-15T16:57:04.896Z,22.95
2022-09-15T16:59:32.762Z,22.88
2022-09-15T17:02:00.765Z,22.79
2022-09-15T17:04:28.939Z,22.71
2022-09-15T17:06:56.792Z,22.73
2022-09-15T17:09:25.001Z,22.65
2022-09-15T17:11:55.812Z,22.63
2022-09-15T17:14:23.756Z,22.62
2022-09-15T17:16:52.922Z,22.59
2022-09-15T17:19:21.202Z,22.59
2022-09-15T17:21:52.680Z,22.60
2022-09-15T17:24:20.691Z,22.56
2022-09-15T17:26:48.913Z,22.52
2022-09-15T17:29:18.174Z,22.44
2022-09-15T17:31:46.285Z,22.44
2022-09-15T17:34:15.181Z,22.36
2022-09-15T17:36:43.707Z,22.32
2022-09-15T17:39:11.719Z,22.20
2022-09-15T17:41:39.942Z,22.20
2022-09-15T17:44:11.413Z,22.08
2022-09-15T17:46:40.989Z,22.02
2022-09-15T17:49:08.948Z,21.97
2022-09-15T17:51:36.862Z,21.92
2022-09-15T17:54:07.036Z,21.88
2022-09-15T17:59:02.719Z,21.74
2022-09-15T18:01:30.900Z,21.70
2022-09-15T18:04:00.434Z,21.62
2022-09-15T18:06:28.341Z,21.49
2022-09-15T18:08:57.414Z,21.41
2022-09-15T18:11:27.823Z,21.38
2022-09-15T18:13:57.896Z,21.33
2022-09-15T18:16:25.994Z,21.30
2022-09-15T18:18:53.987Z,21.23
2022-09-15T18:21:28.495Z,21.17
2022-09-15T18:23:56.957Z,21.09
2022-09-15T18:26:26.503Z,21.05
2022-09-15T18:28:55.626Z,21.02
2022-09-15T18:31:23.800Z,21.01
2022-09-15T18:33:51.845Z,21.02
2022-09-15T18:36:19.719Z,21.03
2022-09-15T18:38:49.202Z,21.05
2022-09-15T18:41:17.100Z,21.07
2022-09-15T18:43:48.834Z,21.09
2022-09-15T18:46:17.394Z,21.12
2022-09-15T18:48:45.667Z,21.14
2022-09-15T18:51:19.668Z,21.13
2022-09-15T18:53:54.564Z,21.15
2022-09-15T18:56:22.664Z,21.18
2022-09-15T18:58:53.623Z,21.20
2022-09-15T19:01:22.193Z,21.17
2022-09-15T19:03:50.254Z,21.21
2022-09-15T19:06:18.211Z,21.24
2022-09-15T19:08:46.723Z,21.26
2022-09-15T19:11:16.136Z,21.23
2022-09-15T19:13:44.228Z,21.19
2022-09-15T19:16:12.729Z,21.19
2022-09-15T19:18:40.786Z,21.20
2022-09-15T19:21:10.607Z,21.19
2022-09-15T19:23:39.221Z,21.19
2022-09-15T19:26:09.474Z,21.15
2022-09-15T19:28:38.800Z,21.17
2022-09-15T19:31:07.807Z,21.01
2022-09-15T19:33:37.803Z,20.81
2022-09-15T19:36:26.993Z,20.70
2022-09-15T19:38:55.953Z,20.80
2022-09-15T19:41:24.031Z,20.75
2022-09-15T19:43:53.810Z,20.51
2022-09-15T19:46:24.488Z,20.44
2022-09-15T19:48:53.311Z,20.19
2022-09-15T19:51:22.194Z,20.16
2022-09-15T19:53:50.940Z,20.15
2022-09-15T19:56:22.489Z,20.13
2022-09-15T19:58:50.828Z,19.99
2022-09-15T20:01:20.140Z,19.97
2022-09-15T20:03:48.410Z,19.97
2022-09-15T20:06:17.210Z,19.89
2022-09-15T20:08:46.978Z,19.88
2022-09-15T20:11:15.960Z,19.79
2022-09-15T20:13:43.974Z,19.77
2022-09-15T20:16:16.962Z,19.64
2022-09-15T20:18:47.932Z,19.63
2022-09-15T20:21:27.082Z,19.63
2022-09-15T20:24:06.732Z,19.64
2022-09-15T20:26:34.631Z,19.66
2022-09-15T20:29:03.958Z,19.67
2022-09-15T20:31:33.361Z,19.69
2022-09-15T20:34:02.565Z,19.70
2022-09-15T20:36:33.702Z,19.69
2022-09-15T20:39:03.352Z,19.71
2022-09-15T20:41:32.840Z,19.71
2022-09-15T20:44:01.137Z,19.67
2022-09-15T20:46:31.252Z,19.69
2022-09-15T20:48:59.288Z,19.68
2022-09-15T20:51:31.739Z,19.66
2022-09-15T20:54:01.953Z,19.62
2022-09-15T20:56:31.274Z,19.62
2022-09-15T20:59:01.362Z,19.63
2022-09-15T21:01:31.723Z,19.64
2022-09-15T21:04:00.089Z,19.65
2022-09-15T21:06:29.732Z,19.53
2022-09-15T21:08:58.554Z,19.52
2022-09-15T21:11:28.483Z,19.48
2022-09-15T21:13:57.347Z,19.47
2022-09-15T21:16:26.910Z,19.50
2022-09-15T21:18:56.832Z,19.41
2022-09-15T21:21:26.461Z,19.48
2022-09-15T21:23:58.612Z,19.40
2022-09-15T21:26:28.236Z,19.34
2022-09-15T21:28:57.201Z,19.36
2022-09-15T21:31:27.231Z,19.42
2022-09-15T21:33:55.997Z,19.30
2022-09-15T21:36:25.448Z,19.29
2022-09-15T21:38:56.160Z,19.33
2022-09-15T21:41:26.107Z,19.32
2022-09-15T21:43:55.722Z,19.28
2022-09-15T21:46:25.871Z,19.32
2022-09-15T21:48:55.656Z,19.27
2022-09-15T21:51:25.412Z,19.28
2022-09-15T21:53:56.317Z,19.26
2022-09-15T21:56:25.528Z,19.31
2022-09-15T21:58:54.281Z,19.31
2022-09-15T22:01:25.156Z,19.26
2022-09-15T22:03:55.008Z,19.26
2022-09-15T22:06:27.508Z,19.20
2022-09-15T22:08:57.232Z,19.23
2022-09-15T22:11:25.856Z,19.21
2022-09-15T22:13:53.921Z,19.20
2022-09-15T22:16:24.113Z,19.19
2022-09-15T22:18:53.020Z,19.12
2022-09-15T22:21:22.815Z,19.11
2022-09-15T22:23:52.718Z,19.10
2022-09-15T22:26:24.231Z,19.02
2022-09-15T22:28:52.745Z,19.00
2022-09-15T22:31:21.754Z,18.99
2022-09-15T22:33:50.388Z,18.99
2022-09-15T22:36:22.227Z,18.95
2022-09-15T22:38:53.869Z,18.91
2022-09-15T22:41:25.725Z,18.91
2022-09-15T22:43:53.875Z,18.88
2022-09-15T22:46:21.867Z,18.89
2022-09-15T22:48:49.969Z,18.94
2022-09-15T22:51:17.863Z,18.96
2022-09-15T22:53:45.703Z,19.00
2022-09-15T22:56:19.624Z,19.00
2022-09-15T22:58:50.801Z,19.01
2022-09-15T23:01:20.856Z,18.99
2022-09-15T23:03:51.556Z,18.97
2022-09-15T23:06:20.012Z,18.90
2022-09-15T23:08:51.135Z,18.89
2022-09-15T23:11:19.532Z,18.89
2022-09-15T23:13:48.843Z,18.90
2022-09-15T23:16:17.337Z,18.84
2022-09-15T23:18:45.960Z,18.87
2022-09-15T23:21:14.025Z,18.88
2022-09-15T23:23:44.256Z,18.84
2022-09-15T23:26:13.668Z,18.82
2022-09-15T23:28:41.840Z,18.82
2022-09-15T23:31:12.714Z,18.81
2022-09-15T23:33:42.341Z,18.76
2022-09-15T23:36:13.062Z,18.76
2022-09-15T23:38:43.662Z,18.75
2022-09-15T23:41:13.412Z,18.76
2022-09-15T23:43:41.632Z,18.71
2022-09-15T23:46:11.471Z,18.69
2022-09-15T23:48:39.443Z,18.72
2022-09-15T23:51:07.839Z,18.73
2022-09-15T23:53:36.475Z,18.76
2022-09-15T23:56:04.783Z,18.78
2022-09-15T23:58:33.121Z,18.76
